Time,TemperatureF,DewpointF,PressureIn,WindDirection,WindDirectionDegrees,WindSpeedMPH,WindSpeedGustMPH,Humidity,HourlyPrecipIn,Conditions,Clouds,dailyrainin,SoftwareType,DateUTC
2013-03-05 00:02:00,42.0,32.0,30.07,WSW,256,9.0,13.0,67,0.00,,,0.00,,2013-03-05 08:02:00,
2013-03-05 00:11:00,42.0,32.0,30.07,WSW,256,9.0,13.0,67,0.00,,,0.00,,2013-03-05 08:11:00,
2013-03-05 00:21:00,42.0,31.0,30.07,WSW,256,10.0,14.0,66,0.00,,,0.00,,2013-03-05 08:21:00,
2013-03-05 00:31:00,42.0,31.0,30.06,WSW,256,11.0,14.0,66,0.00,,,0.00,,2013-03-05 08:31:00,
2013-03-05 00:41:00,42.0,31.0,30.06,WSW,256,11.0,14.0,66,0.00,,,0.00,,2013-03-05 08:41:00,
2013-03-05 00:52:00,42.0,31.0,30.04,WSW,258,9.0,13.0,65,0.00,,,0.00,,2013-03-05 08:52:00,
2013-03-05 01:01:00,41.0,31.0,30.04,WSW,256,8.0,12.0,67,0.00,,,0.00,,2013-03-05 09:01:00,
2013-03-05 01:11:00,41.0,31.0,30.04,WSW,256,8.0,12.0,67,0.00,,,0.00,,2013-03-05 09:11:00,
2013-03-05 01:21:00,41.0,31.0,30.04,West,264,9.0,11.0,67,0.00,,,0.00,,2013-03-05 09:21:00,
2013-03-05 01:31:00,44.0,31.0,30.04,WSW,251,9.0,11.0,61,0.00,,,0.00,,2013-03-05 09:31:00,
2013-03-05 01:42:00,44.0,31.0,30.04,WSW,251,9.0,11.0,61,0.00,,,0.00,,2013-03-05 09:42:00,
2013-03-05 01:52:00,43.0,31.0,30.04,WSW,252,10.0,12.0,63,0.00,,,0.00,,2013-03-05 09:52:00,
2013-03-05 02:01:00,43.0,32.0,30.03,West,259,8.0,10.0,65,0.00,,,0.00,,2013-03-05 10:01:00,
2013-03-05 02:11:00,43.0,32.0,30.03,West,259,8.0,10.0,65,0.00,,,0.00,,2013-03-05 10:11:00,
2013-03-05 02:21:00,44.0,31.0,30.03,West,264,6.0,9.0,61,0.00,,,0.00,,2013-03-05 10:21:00,
2013-03-05 02:31:00,42.0,31.0,30.03,West,259,9.0,11.0,65,0.00,,,0.00,,2013-03-05 10:31:00,
2013-03-05 02:41:00,42.0,31.0,30.03,West,259,9.0,11.0,65,0.00,,,0.00,,2013-03-05 10:41:00,
2013-03-05 02:52:00,42.0,31.0,30.02,WSW,250,9.0,11.0,65,0.00,,,0.00,,2013-03-05 10:52:00,
2013-03-05 03:01:00,42.0,31.0,30.02,WSW,252,10.0,12.0,64,0.00,,,0.00,,2013-03-05 11:01:00,
2013-03-05 03:11:00,42.0,31.0,30.02,WSW,252,10.0,12.0,64,0.00,,,0.00,,2013-03-05 11:11:00,
2013-03-05 03:21:00,41.0,31.0,30.02,WSW,252,9.0,12.0,66,0.00,,,0.00,,2013-03-05 11:21:00,
2013-03-05 03:32:00,41.0,31.0,30.02,WSW,253,10.0,12.0,66,0.00,,,0.00,,2013-03-05 11:32:00,
2013-03-05 03:41:00,41.0,31.0,30.02,WSW,253,10.0,12.0,66,0.00,,,0.00,,2013-03-05 11:41:00,
2013-03-05 03:52:00,42.0,31.0,30.02,WSW,252,9.0,12.0,65,0.00,,,0.00,,2013-03-05 11:52:00,
2013-03-05 04:02:00,41.0,31.0,30.02,WSW,254,9.0,13.0,66,0.00,,,0.00,,2013-03-05 12:02:00,
2013-03-05 04:11:00,41.0,31.0,30.02,WSW,254,9.0,13.0,66,0.00,,,0.00,,2013-03-05 12:11:00,
2013-03-05 04:22:00,42.0,31.0,30.02,WSW,255,9.0,12.0,65,0.00,,,0.00,,2013-03-05 12:22:00,
2013-03-05 04:32:00,41.0,31.0,30.02,WSW,257,8.0,10.0,66,0.00,,,0.00,,2013-03-05 12:32:00,
2013-03-05 04:42:00,41.0,31.0,30.02,WSW,257,8.0,10.0,66,0.00,,,0.00,,2013-03-05 12:42:00,
2013-03-05 04:52:00,41.0,31.0,30.02,WSW,257,8.0,11.0,66,0.00,,,0.00,,2013-03-05 12:52:00,
2013-03-05 05:01:00,42.0,31.0,30.02,West,260,6.0,9.0,64,0.00,,,0.00,,2013-03-05 13:01:00,
2013-03-05 05:11:00,42.0,31.0,30.02,West,260,6.0,9.0,64,0.00,,,0.00,,2013-03-05 13:11:00,
2013-03-05 05:21:00,40.0,30.0,30.02,WSW,252,8.0,10.0,66,0.00,,,0.00,,2013-03-05 13:21:00,
2013-03-05 05:31:00,40.0,30.0,30.03,WSW,255,8.0,11.0,66,0.00,,,0.00,,2013-03-05 13:31:00,
2013-03-05 05:41:00,40.0,30.0,30.03,WSW,255,8.0,11.0,66,0.00,,,0.00,,2013-03-05 13:41:00,
2013-03-05 05:52:00,40.0,30.0,30.02,WSW,254,8.0,10.0,66,0.00,,,0.00,,2013-03-05 13:52:00,
2013-03-05 06:02:00,40.0,30.0,30.02,WSW,258,7.0,10.0,67,0.00,,,0.00,,2013-03-05 14:02:00,
2013-03-05 06:11:00,40.0,30.0,30.02,WSW,258,7.0,10.0,67,0.00,,,0.00,,2013-03-05 14:11:00,
2013-03-05 06:21:00,42.0,30.0,30.02,WSW,256,7.0,9.0,63,0.00,,,0.00,,2013-03-05 14:21:00,
2013-03-05 06:31:00,39.0,30.0,30.02,WSW,252,8.0,9.0,69,0.00,,,0.00,,2013-03-05 14:31:00,
2013-03-05 06:41:00,39.0,30.0,30.02,WSW,252,8.0,9.0,69,0.00,,,0.00,,2013-03-05 14:41:00,
2013-03-05 06:52:00,42.0,31.0,30.02,WSW,256,7.0,9.0,64,0.00,,,0.00,,2013-03-05 14:52:00,
2013-03-05 07:01:00,42.0,31.0,30.03,WSW,249,7.0,9.0,66,0.00,,,0.00,,2013-03-05 15:01:00,
2013-03-05 07:11:00,42.0,31.0,30.03,WSW,249,7.0,9.0,66,0.00,,,0.00,,2013-03-05 15:11:00,
2013-03-05 07:21:00,43.0,32.0,30.03,WSW,249,7.0,8.0,64,0.00,,,0.00,,2013-03-05 15:21:00,
2013-03-05 07:31:00,47.0,34.0,30.03,WSW,238,4.0,8.0,60,0.00,,,0.00,,2013-03-05 15:31:00,
2013-03-05 07:42:00,47.0,34.0,30.03,WSW,238,4.0,8.0,60,0.00,,,0.00,,2013-03-05 15:42:00,
2013-03-05 07:52:00,50.0,34.0,30.03,WSW,238,3.0,6.0,54,0.00,,,0.00,,2013-03-05 15:52:00,
2013-03-05 08:01:00,53.0,36.0,30.04,SSE,153,2.0,5.0,52,0.00,,,0.00,,2013-03-05 16:01:00,
2013-03-05 08:11:00,53.0,36.0,30.04,SSE,153,2.0,5.0,52,0.00,,,0.00,,2013-03-05 16:11:00,
2013-03-05 08:21:00,55.0,35.0,30.04,SW,220,1.0,5.0,47,0.00,,,0.00,,2013-03-05 16:21:00,
2013-03-05 08:31:00,56.0,36.0,30.04,SSW,209,4.0,8.0,46,0.00,,,0.00,,2013-03-05 16:31:00,
2013-03-05 08:51:00,57.0,34.0,30.05,SW,214,3.0,12.0,42,0.00,,,0.00,,2013-03-05 16:51:00,
2013-03-05 09:01:00,58.0,33.0,30.04,SW,218,6.0,16.0,39,0.00,,,0.00,,2013-03-05 17:01:00,
2013-03-05 09:11:00,58.0,33.0,30.04,SW,218,6.0,16.0,39,0.00,,,0.00,,2013-03-05 17:11:00,
2013-03-05 09:21:00,58.0,32.0,30.05,WSW,244,6.0,13.0,37,0.00,,,0.00,,2013-03-05 17:21:00,
2013-03-05 09:31:00,59.0,32.0,30.05,WSW,248,12.0,16.0,36,0.00,,,0.00,,2013-03-05 17:31:00,
2013-03-05 09:41:00,59.0,32.0,30.05,WSW,248,12.0,16.0,36,0.00,,,0.00,,2013-03-05 17:41:00,
2013-03-05 09:52:00,60.0,32.0,30.04,WSW,249,9.0,18.0,34,0.00,,,0.00,,2013-03-05 17:52:00,
2013-03-05 10:01:00,60.0,28.0,30.05,SW,223,11.0,21.0,30,0.00,,,0.00,,2013-03-05 18:01:00,
2013-03-05 10:11:00,60.0,28.0,30.05,SW,223,11.0,21.0,30,0.00,,,0.00,,2013-03-05 18:11:00,
2013-03-05 10:21:00,60.0,27.0,30.04,SW,231,9.0,20.0,28,0.00,,,0.00,,2013-03-05 18:21:00,
2013-03-05 10:31:00,61.0,28.0,30.03,WSW,241,9.0,18.0,28,0.00,,,0.00,,2013-03-05 18:31:00,
2013-03-05 10:41:00,61.0,28.0,30.03,WSW,241,9.0,18.0,28,0.00,,,0.00,,2013-03-05 18:41:00,
2013-03-05 10:52:00,61.0,26.0,30.03,WSW,241,6.0,17.0,26,0.00,,,0.00,,2013-03-05 18:52:00,
2013-03-05 11:01:00,61.0,27.0,30.03,SSW,194,10.0,17.0,27,0.00,,,0.00,,2013-03-05 19:01:00,
2013-03-05 11:11:00,61.0,27.0,30.03,SSW,194,10.0,17.0,27,0.00,,,0.00,,2013-03-05 19:11:00,
2013-03-05 11:21:00,62.0,28.0,30.03,WSW,252,8.0,24.0,27,0.00,,,0.00,,2013-03-05 19:21:00,
2013-03-05 11:31:00,63.0,29.0,30.02,WSW,257,9.0,19.0,27,0.00,,,0.00,,2013-03-05 19:31:00,
2013-03-05 11:41:00,63.0,29.0,30.02,WSW,257,9.0,19.0,27,0.00,,,0.00,,2013-03-05 19:41:00,
2013-03-05 11:52:00,63.0,27.0,30.02,SW,233,15.0,24.0,25,0.00,,,0.00,,2013-03-05 19:52:00,
2013-03-05 12:01:00,62.0,28.0,30.02,SW,232,12.0,20.0,27,0.00,,,0.00,,2013-03-05 20:01:00,
2013-03-05 12:11:00,62.0,28.0,30.00,SW,226,7.0,17.0,27,0.00,,,0.00,,2013-03-05 20:11:00,
2013-03-05 12:21:00,62.0,28.0,30.00,SW,226,7.0,17.0,27,0.00,,,0.00,,2013-03-05 20:21:00,
2013-03-05 12:31:00,63.0,26.0,29.99,WSW,237,13.0,22.0,24,0.00,,,0.00,,2013-03-05 20:31:00,
2013-03-05 12:41:00,63.0,26.0,29.99,WSW,237,13.0,22.0,24,0.00,,,0.00,,2013-03-05 20:41:00,
2013-03-05 12:52:00,64.0,26.0,29.99,WSW,244,19.0,27.0,24,0.00,,,0.00,,2013-03-05 20:52:00,
2013-03-05 13:01:00,63.0,26.0,29.98,West,260,14.0,23.0,24,0.00,,,0.00,,2013-03-05 21:01:00,
2013-03-05 13:11:00,63.0,26.0,29.98,West,260,14.0,23.0,24,0.00,,,0.00,,2013-03-05 21:11:00,
2013-03-05 13:21:00,64.0,24.0,29.97,West,265,16.0,24.0,22,0.00,,,0.00,,2013-03-05 21:21:00,
2013-03-05 13:31:00,64.0,24.0,29.97,WSW,253,12.0,22.0,22,0.00,,,0.00,,2013-03-05 21:31:00,
2013-03-05 13:41:00,64.0,24.0,29.97,WSW,253,12.0,22.0,22,0.00,,,0.00,,2013-03-05 21:41:00,
2013-03-05 13:52:00,64.0,22.0,29.96,WSW,253,15.0,23.0,20,0.00,,,0.00,,2013-03-05 21:52:00,
2013-03-05 14:01:00,64.0,22.0,29.96,SW,236,20.0,29.0,20,0.00,,,0.00,,2013-03-05 22:01:00,
2013-03-05 14:11:00,64.0,22.0,29.96,SW,236,20.0,29.0,20,0.00,,,0.00,,2013-03-05 22:11:00,
2013-03-05 14:21:00,64.0,23.0,29.95,WSW,243,15.0,27.0,21,0.00,,,0.00,,2013-03-05 22:21:00,
2013-03-05 14:31:00,63.0,25.0,29.95,WSW,246,23.0,30.0,23,0.00,,,0.00,,2013-03-05 22:31:00,
2013-03-05 14:41:00,63.0,25.0,29.95,WSW,246,23.0,30.0,23,0.00,,,0.00,,2013-03-05 22:41:00,
2013-03-05 14:52:00,63.0,24.0,29.94,SW,236,22.0,28.0,22,0.00,,,0.00,,2013-03-05 22:52:00,
2013-03-05 15:01:00,63.0,21.0,29.95,WSW,245,19.0,27.0,20,0.00,,,0.00,,2013-03-05 23:01:00,
2013-03-05 15:11:00,63.0,21.0,29.95,WSW,245,19.0,27.0,20,0.00,,,0.00,,2013-03-05 23:11:00,
2013-03-05 15:21:00,62.0,24.0,29.94,SW,232,14.0,23.0,23,0.00,,,0.00,,2013-03-05 23:21:00,
2013-03-05 15:32:00,62.0,25.0,29.94,SW,229,15.0,25.0,24,0.00,,,0.00,,2013-03-05 23:32:00,
2013-03-05 15:41:00,62.0,25.0,29.94,SW,229,15.0,25.0,24,0.00,,,0.00,,2013-03-05 23:41:00,
2013-03-05 15:52:00,62.0,27.0,29.94,SW,215,10.0,20.0,26,0.00,,,0.00,,2013-03-05 23:52:00,
2013-03-05 16:01:00,61.0,28.0,29.93,SW,233,10.0,20.0,28,0.00,,,0.00,,2013-03-06 00:01:00,
2013-03-05 16:11:00,61.0,28.0,29.93,SW,233,10.0,20.0,28,0.00,,,0.00,,2013-03-06 00:11:00,
2013-03-05 16:21:00,61.0,29.0,29.93,SSW,212,8.0,20.0,29,0.00,,,0.00,,2013-03-06 00:21:00,
2013-03-05 16:32:00,60.0,28.0,29.93,WSW,239,11.0,21.0,30,0.00,,,0.00,,2013-03-06 00:32:00,
2013-03-05 16:41:00,60.0,28.0,29.93,WSW,239,11.0,21.0,30,0.00,,,0.00,,2013-03-06 00:41:00,
2013-03-05 16:52:00,60.0,30.0,29.93,SW,234,14.0,22.0,32,0.00,,,0.00,,2013-03-06 00:52:00,
2013-03-05 17:01:00,60.0,32.0,29.93,SW,232,7.0,21.0,34,0.00,,,0.00,,2013-03-06 01:01:00,
2013-03-05 17:11:00,60.0,32.0,29.93,SW,232,7.0,21.0,34,0.00,,,0.00,,2013-03-06 01:11:00,
2013-03-05 17:21:00,59.0,31.0,29.93,WSW,248,13.0,24.0,34,0.00,,,0.00,,2013-03-06 01:21:00,
2013-03-05 17:31:00,58.0,30.0,29.93,WSW,250,8.0,18.0,34,0.00,,,0.00,,2013-03-06 01:31:00,
2013-03-05 17:41:00,58.0,30.0,29.93,WSW,250,8.0,18.0,34,0.00,,,0.00,,2013-03-06 01:41:00,
2013-03-05 17:52:00,58.0,28.0,29.93,SW,230,6.0,14.0,32,0.00,,,0.00,,2013-03-06 01:52:00,
2013-03-05 18:01:00,56.0,27.0,29.94,West,265,11.0,19.0,33,0.00,,,0.00,,2013-03-06 02:01:00,
2013-03-05 18:11:00,56.0,27.0,29.94,West,265,11.0,19.0,33,0.00,,,0.00,,2013-03-06 02:11:00,
2013-03-05 18:21:00,55.0,27.0,29.94,West,271,13.0,19.0,34,0.00,,,0.00,,2013-03-06 02:21:00,
2013-03-05 18:31:00,55.0,29.0,29.94,West,261,12.0,19.0,36,0.00,,,0.00,,2013-03-06 02:31:00,
2013-03-05 18:41:00,55.0,29.0,29.94,West,261,12.0,19.0,36,0.00,,,0.00,,2013-03-06 02:41:00,
2013-03-05 18:52:00,54.0,28.0,29.95,WNW,285,13.0,17.0,37,0.00,,,0.00,,2013-03-06 02:52:00,
2013-03-05 19:01:00,54.0,27.0,29.95,West,279,11.0,17.0,35,0.00,,,0.00,,2013-03-06 03:01:00,
2013-03-05 19:11:00,54.0,27.0,29.95,West,279,11.0,17.0,35,0.00,,,0.00,,2013-03-06 03:11:00,
2013-03-05 19:21:00,53.0,25.0,29.96,West,274,7.0,17.0,33,0.00,,,0.00,,2013-03-06 03:21:00,
2013-03-05 19:31:00,53.0,25.0,29.96,WNW,285,11.0,17.0,34,0.00,,,0.00,,2013-03-06 03:31:00,
2013-03-05 19:41:00,53.0,25.0,29.96,WNW,285,11.0,17.0,34,0.00,,,0.00,,2013-03-06 03:41:00,
2013-03-05 19:52:00,53.0,25.0,29.96,West,269,12.0,17.0,33,0.00,,,0.00,,2013-03-06 03:52:00,
2013-03-05 20:01:00,52.0,23.0,29.96,West,261,9.0,12.0,32,0.00,,,0.00,,2013-03-06 04:01:00,
2013-03-05 20:11:00,52.0,23.0,29.96,West,261,9.0,12.0,32,0.00,,,0.00,,2013-03-06 04:11:00,
2013-03-05 20:21:00,51.0,23.0,29.95,WSW,247,7.0,11.0,33,0.00,,,0.00,,2013-03-06 04:21:00,
2013-03-05 20:31:00,51.0,21.0,29.95,West,273,6.0,16.0,31,0.00,,,0.00,,2013-03-06 04:31:00,
2013-03-05 20:41:00,51.0,21.0,29.95,West,273,6.0,16.0,31,0.00,,,0.00,,2013-03-06 04:41:00,
2013-03-05 20:52:00,50.0,23.0,29.95,WSW,251,6.0,11.0,34,0.00,,,0.00,,2013-03-06 04:52:00,
2013-03-05 21:01:00,50.0,23.0,29.95,SW,219,1.0,7.0,35,0.00,,,0.00,,2013-03-06 05:01:00,
2013-03-05 21:11:00,50.0,23.0,29.95,WNW,285,4.0,7.0,35,0.00,,,0.00,,2013-03-06 05:11:00,
2013-03-05 21:22:00,50.0,23.0,29.95,WNW,285,4.0,7.0,35,0.00,,,0.00,,2013-03-06 05:22:00,
2013-03-05 21:32:00,50.0,22.0,29.95,WNW,291,6.0,12.0,33,0.00,,,0.00,,2013-03-06 05:32:00,
2013-03-05 21:42:00,50.0,22.0,29.95,WNW,291,6.0,12.0,33,0.00,,,0.00,,2013-03-06 05:42:00,
2013-03-05 21:52:00,50.0,22.0,29.96,WSW,250,2.0,9.0,33,0.00,,,0.00,,2013-03-06 05:52:00,
2013-03-05 22:01:00,49.0,21.0,29.96,West,268,5.0,11.0,33,0.00,,,0.00,,2013-03-06 06:01:00,
2013-03-05 22:11:00,49.0,21.0,29.96,West,268,5.0,11.0,33,0.00,,,0.00,,2013-03-06 06:11:00,
2013-03-05 22:21:00,50.0,20.0,29.96,WSW,248,4.0,12.0,30,0.00,,,0.00,,2013-03-06 06:21:00,
2013-03-05 22:31:00,49.0,20.0,29.95,WSW,256,5.0,9.0,32,0.00,,,0.00,,2013-03-06 06:31:00,
2013-03-05 22:41:00,49.0,20.0,29.95,WSW,256,5.0,9.0,32,0.00,,,0.00,,2013-03-06 06:41:00,
2013-03-05 22:52:00,48.0,21.0,29.95,West,265,5.0,8.0,34,0.00,,,0.00,,2013-03-06 06:52:00,
2013-03-05 23:01:00,48.0,22.0,29.95,North,0,0.0,7.0,36,0.00,,,0.00,,2013-03-06 07:01:00,
2013-03-05 23:11:00,48.0,22.0,29.95,North,0,0.0,7.0,36,0.00,,,0.00,,2013-03-06 07:11:00,
2013-03-05 23:22:00,46.0,26.0,29.94,SSE,165,5.0,9.0,46,0.00,,,0.00,,2013-03-06 07:22:00,
2013-03-05 23:31:00,45.0,25.0,29.95,SSW,203,3.0,9.0,46,0.00,,,0.00,,2013-03-06 07:31:00,
2013-03-05 23:41:00,45.0,25.0,29.95,SSW,203,3.0,9.0,46,0.00,,,0.00,,2013-03-06 07:41:00,
2013-03-05 23:52:00,45.0,25.0,29.95,North,0,0.0,6.0,45,0.00,,,0.00,,2013-03-06 07:52:00,